sensor_id;sensor_type;location;lat;lon;timestamp;P1;durP1;ratioP1;P2;durP2;ratioP2
50932;SDS011;36921;49.006;9.292;2023-02-15T00:01:53;28.63;;;12.77;;
50932;SDS011;36921;49.006;9.292;2023-02-15T00:04:20;62.65;;;12.00;;
50932;SDS011;36921;49.006;9.292;2023-02-15T00:06:47;60.03;;;12.98;;
50932;SDS011;36921;49.006;9.292;2023-02-15T00:09:13;29.75;;;12.43;;
50932;SDS011;36921;49.006;9.292;2023-02-15T00:11:39;24.80;;;11.85;;
50932;SDS011;36921;49.006;9.292;2023-02-15T00:14:12;51.65;;;12.18;;
50932;SDS011;36921;49.006;9.292;2023-02-15T00:16:39;59.55;;;13.85;;
50932;SDS011;36921;49.006;9.292;2023-02-15T00:19:05;44.63;;;12.80;;
50932;SDS011;36921;49.006;9.292;2023-02-15T00:21:32;106.00;;;14.45;;
50932;SDS011;36921;49.006;9.292;2023-02-15T00:24:00;63.53;;;15.13;;
50932;SDS011;36921;49.006;9.292;2023-02-15T00:26:26;67.85;;;15.55;;
50932;SDS011;36921;49.006;9.292;2023-02-15T00:28:52;78.18;;;14.88;;
50932;SDS011;36921;49.006;9.292;2023-02-15T00:31:19;32.45;;;13.85;;
50932;SDS011;36921;49.006;9.292;2023-02-15T00:33:45;69.95;;;15.55;;
50932;SDS011;36921;49.006;9.292;2023-02-15T00:36:11;72.80;;;13.60;;
50932;SDS011;36921;49.006;9.292;2023-02-15T00:38:36;31.92;;;13.02;;
50932;SDS011;36921;49.006;9.292;2023-02-15T00:41:03;73.45;;;14.18;;
50932;SDS011;36921;49.006;9.292;2023-02-15T00:43:30;37.75;;;12.32;;
50932;SDS011;36921;49.006;9.292;2023-02-15T00:45:57;52.38;;;13.93;;
50932;SDS011;36921;49.006;9.292;2023-02-15T00:48:23;62.67;;;13.52;;
50932;SDS011;36921;49.006;9.292;2023-02-15T00:50:50;47.10;;;12.20;;
50932;SDS011;36921;49.006;9.292;2023-02-15T00:53:19;51.53;;;12.25;;
50932;SDS011;36921;49.006;9.292;2023-02-15T00:55:46;42.20;;;11.60;;
50932;SDS011;36921;49.006;9.292;2023-02-15T00:58:11;37.45;;;12.63;;
50932;SDS011;36921;49.006;9.292;2023-02-15T01:00:37;52.25;;;13.38;;
50932;SDS011;36921;49.006;9.292;2023-02-15T01:03:04;35.70;;;11.48;;
50932;SDS011;36921;49.006;9.292;2023-02-15T01:05:30;31.90;;;11.10;;
50932;SDS011;36921;49.006;9.292;2023-02-15T01:07:56;50.45;;;10.68;;
50932;SDS011;36921;49.006;9.292;2023-02-15T01:10:22;52.80;;;10.80;;
50932;SDS011;36921;49.006;9.292;2023-02-15T01:12:48;20.23;;;9.73;;
50932;SDS011;36921;49.006;9.292;2023-02-15T01:15:15;62.90;;;10.27;;
50932;SDS011;36921;49.006;9.292;2023-02-15T01:17:40;29.98;;;10.60;;
50932;SDS011;36921;49.006;9.292;2023-02-15T01:20:06;20.25;;;10.20;;
50932;SDS011;36921;49.006;9.292;2023-02-15T01:22:32;23.80;;;9.75;;
50932;SDS011;36921;49.006;9.292;2023-02-15T01:24:57;16.23;;;7.93;;
50932;SDS011;36921;49.006;9.292;2023-02-15T01:27:23;51.38;;;9.38;;
50932;SDS011;36921;49.006;9.292;2023-02-15T01:29:48;67.80;;;9.55;;
50932;SDS011;36921;49.006;9.292;2023-02-15T01:32:13;32.63;;;9.10;;
50932;SDS011;36921;49.006;9.292;2023-02-15T01:34:39;57.00;;;8.95;;
50932;SDS011;36921;49.006;9.292;2023-02-15T01:37:04;20.77;;;9.07;;
50932;SDS011;36921;49.006;9.292;2023-02-15T01:39:29;44.55;;;8.38;;
50932;SDS011;36921;49.006;9.292;2023-02-15T01:41:55;30.08;;;8.82;;
50932;SDS011;36921;49.006;9.292;2023-02-15T01:47:11;46.20;;;11.00;;
50932;SDS011;36921;49.006;9.292;2023-02-15T01:49:39;37.75;;;7.35;;
50932;SDS011;36921;49.006;9.292;2023-02-15T01:52:07;47.85;;;10.57;;
50932;SDS011;36921;49.006;9.292;2023-02-15T01:54:35;55.95;;;11.50;;
50932;SDS011;36921;49.006;9.292;2023-02-15T01:57:09;60.88;;;13.05;;
50932;SDS011;36921;49.006;9.292;2023-02-15T01:59:38;62.30;;;13.57;;
50932;SDS011;36921;49.006;9.292;2023-02-15T02:02:07;103.28;;;13.88;;
50932;SDS011;36921;49.006;9.292;2023-02-15T02:04:47;87.85;;;14.50;;
50932;SDS011;36921;49.006;9.292;2023-02-15T02:07:15;84.03;;;14.23;;
50932;SDS011;36921;49.006;9.292;2023-02-15T02:09:44;67.80;;;13.02;;
50932;SDS011;36921;49.006;9.292;2023-02-15T02:12:10;59.45;;;13.00;;
50932;SDS011;36921;49.006;9.292;2023-02-15T02:14:36;190.05;;;14.77;;
50932;SDS011;36921;49.006;9.292;2023-02-15T02:17:16;76.35;;;12.38;;
50932;SDS011;36921;49.006;9.292;2023-02-15T02:20:12;97.07;;;13.95;;
50932;SDS011;36921;49.006;9.292;2023-02-15T02:28:48;149.65;;;13.23;;
50932;SDS011;36921;49.006;9.292;2023-02-15T02:34:40;116.10;;;11.93;;
50932;SDS011;36921;49.006;9.292;2023-02-15T02:37:28;118.13;;;13.55;;
50932;SDS011;36921;49.006;9.292;2023-02-15T02:40:10;50.80;;;10.93;;
50932;SDS011;36921;49.006;9.292;2023-02-15T02:42:44;128.05;;;11.50;;
50932;SDS011;36921;49.006;9.292;2023-02-15T02:45:22;163.40;;;13.45;;
50932;SDS011;36921;49.006;9.292;2023-02-15T02:50:30;129.18;;;12.68;;
50932;SDS011;36921;49.006;9.292;2023-02-15T02:52:56;74.85;;;10.50;;
50932;SDS011;36921;49.006;9.292;2023-02-15T02:55:37;104.00;;;12.35;;
50932;SDS011;36921;49.006;9.292;2023-02-15T02:58:24;169.15;;;13.15;;
50932;SDS011;36921;49.006;9.292;2023-02-15T03:00:55;76.15;;;11.50;;
50932;SDS011;36921;49.006;9.292;2023-02-15T03:03:30;218.88;;;14.55;;
50932;SDS011;36921;49.006;9.292;2023-02-15T03:06:10;102.20;;;10.88;;
50932;SDS011;36921;49.006;9.292;2023-02-15T03:08:43;184.32;;;14.50;;
50932;SDS011;36921;49.006;9.292;2023-02-15T03:11:13;93.00;;;10.98;;
50932;SDS011;36921;49.006;9.292;2023-02-15T03:13:39;124.25;;;10.50;;
50932;SDS011;36921;49.006;9.292;2023-02-15T03:16:05;105.40;;;11.32;;
50932;SDS011;36921;49.006;9.292;2023-02-15T03:19:00;75.53;;;11.45;;
50932;SDS011;36921;49.006;9.292;2023-02-15T03:21:40;93.30;;;9.80;;
50932;SDS011;36921;49.006;9.292;2023-02-15T03:24:27;118.30;;;12.18;;
50932;SDS011;36921;49.006;9.292;2023-02-15T03:26:56;119.32;;;11.90;;
50932;SDS011;36921;49.006;9.292;2023-02-15T03:29:23;42.05;;;10.52;;
50932;SDS011;36921;49.006;9.292;2023-02-15T03:31:59;132.85;;;11.75;;
50932;SDS011;36921;49.006;9.292;2023-02-15T03:34:28;99.80;;;10.95;;
50932;SDS011;36921;49.006;9.292;2023-02-15T03:44:54;224.32;;;13.70;;
50932;SDS011;36921;49.006;9.292;2023-02-15T03:47:23;61.25;;;11.65;;
50932;SDS011;36921;49.006;9.292;2023-02-15T03:49:55;28.10;;;9.98;;
50932;SDS011;36921;49.006;9.292;2023-02-15T03:52:25;49.70;;;10.60;;
50932;SDS011;36921;49.006;9.292;2023-02-15T03:54:54;39.65;;;8.13;;
50932;SDS011;36921;49.006;9.292;2023-02-15T03:57:21;41.83;;;9.45;;
50932;SDS011;36921;49.006;9.292;2023-02-15T04:00:18;28.42;;;9.82;;
50932;SDS011;36921;49.006;9.292;2023-02-15T04:05:34;184.63;;;10.75;;
50932;SDS011;36921;49.006;9.292;2023-02-15T04:07:59;58.05;;;9.02;;
50932;SDS011;36921;49.006;9.292;2023-02-15T04:10:24;136.70;;;9.85;;
50932;SDS011;36921;49.006;9.292;2023-02-15T04:13:08;101.53;;;9.13;;
50932;SDS011;36921;49.006;9.292;2023-02-15T04:15:33;43.58;;;8.23;;
50932;SDS011;36921;49.006;9.292;2023-02-15T04:18:17;22.73;;;8.05;;
50932;SDS011;36921;49.006;9.292;2023-02-15T04:20:43;41.20;;;8.10;;
50932;SDS011;36921;49.006;9.292;2023-02-15T04:23:28;35.40;;;7.88;;
50932;SDS011;36921;49.006;9.292;2023-02-15T04:26:12;36.13;;;8.30;;
50932;SDS011;36921;49.006;9.292;2023-02-15T04:28:37;20.95;;;8.32;;
50932;SDS011;36921;49.006;9.292;2023-02-15T04:31:02;43.60;;;8.38;;
50932;SDS011;36921;49.006;9.292;2023-02-15T04:33:28;41.00;;;7.90;;
50932;SDS011;36921;49.006;9.292;2023-02-15T04:35:53;18.13;;;8.13;;
50932;SDS011;36921;49.006;9.292;2023-02-15T04:38:18;27.17;;;7.32;;
50932;SDS011;36921;49.006;9.292;2023-02-15T04:40:43;27.10;;;7.90;;
50932;SDS011;36921;49.006;9.292;2023-02-15T04:43:09;57.90;;;8.52;;
50932;SDS011;36921;49.006;9.292;2023-02-15T04:45:34;33.30;;;8.70;;
50932;SDS011;36921;49.006;9.292;2023-02-15T04:47:59;46.63;;;8.77;;
50932;SDS011;36921;49.006;9.292;2023-02-15T04:50:25;45.22;;;8.82;;
50932;SDS011;36921;49.006;9.292;2023-02-15T04:55:18;47.30;;;8.00;;
50932;SDS011;36921;49.006;9.292;2023-02-15T04:57:44;35.28;;;8.82;;
50932;SDS011;36921;49.006;9.292;2023-02-15T05:00:11;44.55;;;8.88;;
50932;SDS011;36921;49.006;9.292;2023-02-15T05:02:36;41.53;;;8.70;;
50932;SDS011;36921;49.006;9.292;2023-02-15T05:05:03;16.50;;;7.57;;
50932;SDS011;36921;49.006;9.292;2023-02-15T05:07:28;28.63;;;8.35;;
50932;SDS011;36921;49.006;9.292;2023-02-15T05:09:53;54.55;;;8.05;;
50932;SDS011;36921;49.006;9.292;2023-02-15T05:12:19;23.33;;;8.23;;
50932;SDS011;36921;49.006;9.292;2023-02-15T05:14:44;31.52;;;8.27;;
50932;SDS011;36921;49.006;9.292;2023-02-15T05:17:09;20.92;;;8.30;;
50932;SDS011;36921;49.006;9.292;2023-02-15T05:19:35;19.60;;;8.95;;
50932;SDS011;36921;49.006;9.292;2023-02-15T05:22:00;38.15;;;8.73;;
50932;SDS011;36921;49.006;9.292;2023-02-15T05:24:25;34.03;;;7.35;;
50932;SDS011;36921;49.006;9.292;2023-02-15T05:27:12;32.30;;;8.20;;
50932;SDS011;36921;49.006;9.292;2023-02-15T05:29:56;49.75;;;8.20;;
50932;SDS011;36921;49.006;9.292;2023-02-15T05:32:21;38.50;;;7.32;;
50932;SDS011;36921;49.006;9.292;2023-02-15T05:34:47;63.90;;;9.15;;
50932;SDS011;36921;49.006;9.292;2023-02-15T05:37:12;56.88;;;8.98;;
50932;SDS011;36921;49.006;9.292;2023-02-15T05:39:37;41.83;;;8.25;;
50932;SDS011;36921;49.006;9.292;2023-02-15T05:42:04;33.00;;;8.43;;
50932;SDS011;36921;49.006;9.292;2023-02-15T05:44:29;52.20;;;8.18;;
50932;SDS011;36921;49.006;9.292;2023-02-15T05:46:54;57.65;;;8.50;;
50932;SDS011;36921;49.006;9.292;2023-02-15T05:49:20;41.35;;;8.18;;
50932;SDS011;36921;49.006;9.292;2023-02-15T05:51:45;30.70;;;7.78;;
50932;SDS011;36921;49.006;9.292;2023-02-15T05:54:10;28.90;;;8.32;;
50932;SDS011;36921;49.006;9.292;2023-02-15T05:56:36;19.05;;;7.85;;
50932;SDS011;36921;49.006;9.292;2023-02-15T05:59:01;43.17;;;8.70;;
50932;SDS011;36921;49.006;9.292;2023-02-15T06:01:27;15.90;;;7.30;;
50932;SDS011;36921;49.006;9.292;2023-02-15T06:03:52;13.68;;;7.30;;
50932;SDS011;36921;49.006;9.292;2023-02-15T06:06:18;40.45;;;8.90;;
50932;SDS011;36921;49.006;9.292;2023-02-15T06:08:44;41.97;;;8.63;;
50932;SDS011;36921;49.006;9.292;2023-02-15T06:11:09;52.53;;;8.15;;
50932;SDS011;36921;49.006;9.292;2023-02-15T06:13:35;33.60;;;8.70;;
50932;SDS011;36921;49.006;9.292;2023-02-15T06:16:01;25.23;;;8.07;;
50932;SDS011;36921;49.006;9.292;2023-02-15T06:18:26;66.22;;;9.18;;
50932;SDS011;36921;49.006;9.292;2023-02-15T06:20:52;51.53;;;8.43;;
50932;SDS011;36921;49.006;9.292;2023-02-15T06:23:18;37.08;;;9.25;;
50932;SDS011;36921;49.006;9.292;2023-02-15T06:25:44;94.30;;;10.35;;
50932;SDS011;36921;49.006;9.292;2023-02-15T06:28:10;63.05;;;8.65;;
50932;SDS011;36921;49.006;9.292;2023-02-15T06:30:35;40.13;;;8.93;;
50932;SDS011;36921;49.006;9.292;2023-02-15T06:33:01;44.60;;;8.80;;
50932;SDS011;36921;49.006;9.292;2023-02-15T06:35:26;30.13;;;9.45;;
50932;SDS011;36921;49.006;9.292;2023-02-15T06:37:52;70.25;;;10.70;;
50932;SDS011;36921;49.006;9.292;2023-02-15T06:40:17;38.63;;;8.80;;
50932;SDS011;36921;49.006;9.292;2023-02-15T06:42:42;18.25;;;8.30;;
50932;SDS011;36921;49.006;9.292;2023-02-15T06:45:08;23.83;;;9.68;;
50932;SDS011;36921;49.006;9.292;2023-02-15T06:47:34;75.78;;;9.75;;
50932;SDS011;36921;49.006;9.292;2023-02-15T06:49:59;53.88;;;9.88;;
50932;SDS011;36921;49.006;9.292;2023-02-15T06:52:25;24.02;;;9.43;;
50932;SDS011;36921;49.006;9.292;2023-02-15T06:54:50;36.80;;;8.88;;
50932;SDS011;36921;49.006;9.292;2023-02-15T06:57:17;51.95;;;8.88;;
50932;SDS011;36921;49.006;9.292;2023-02-15T06:59:42;49.60;;;9.30;;
50932;SDS011;36921;49.006;9.292;2023-02-15T07:02:08;26.65;;;8.93;;
50932;SDS011;36921;49.006;9.292;2023-02-15T07:04:36;27.25;;;9.20;;
50932;SDS011;36921;49.006;9.292;2023-02-15T07:07:01;19.02;;;8.32;;
50932;SDS011;36921;49.006;9.292;2023-02-15T07:09:27;19.08;;;7.95;;
50932;SDS011;36921;49.006;9.292;2023-02-15T07:11:52;22.63;;;7.00;;
50932;SDS011;36921;49.006;9.292;2023-02-15T07:14:36;27.13;;;8.82;;
50932;SDS011;36921;49.006;9.292;2023-02-15T07:17:01;28.55;;;7.20;;
50932;SDS011;36921;49.006;9.292;2023-02-15T07:19:26;23.10;;;8.30;;
50932;SDS011;36921;49.006;9.292;2023-02-15T07:21:52;38.97;;;9.25;;
50932;SDS011;36921;49.006;9.292;2023-02-15T07:24:17;24.80;;;8.52;;
50932;SDS011;36921;49.006;9.292;2023-02-15T07:26:42;33.00;;;8.05;;
50932;SDS011;36921;49.006;9.292;2023-02-15T07:29:08;15.65;;;7.75;;
50932;SDS011;36921;49.006;9.292;2023-02-15T07:31:33;13.95;;;7.43;;
50932;SDS011;36921;49.006;9.292;2023-02-15T07:33:58;81.13;;;9.82;;
50932;SDS011;36921;49.006;9.292;2023-02-15T07:36:23;43.80;;;8.63;;
50932;SDS011;36921;49.006;9.292;2023-02-15T07:38:49;22.85;;;9.40;;
50932;SDS011;36921;49.006;9.292;2023-02-15T07:41:14;44.65;;;9.77;;
50932;SDS011;36921;49.006;9.292;2023-02-15T07:43:41;65.72;;;9.60;;
50932;SDS011;36921;49.006;9.292;2023-02-15T07:46:09;46.08;;;10.35;;
50932;SDS011;36921;49.006;9.292;2023-02-15T07:48:37;37.67;;;9.98;;
50932;SDS011;36921;49.006;9.292;2023-02-15T07:51:04;39.22;;;10.18;;
50932;SDS011;36921;49.006;9.292;2023-02-15T07:53:31;35.95;;;8.05;;
50932;SDS011;36921;49.006;9.292;2023-02-15T07:56:01;27.50;;;10.93;;
50932;SDS011;36921;49.006;9.292;2023-02-15T07:58:27;75.25;;;10.23;;
50932;SDS011;36921;49.006;9.292;2023-02-15T08:01:12;24.02;;;10.10;;
50932;SDS011;36921;49.006;9.292;2023-02-15T08:03:38;40.13;;;9.10;;
50932;SDS011;36921;49.006;9.292;2023-02-15T08:06:03;32.60;;;8.90;;
50932;SDS011;36921;49.006;9.292;2023-02-15T08:08:28;38.15;;;8.85;;
50932;SDS011;36921;49.006;9.292;2023-02-15T08:10:57;26.13;;;9.20;;
50932;SDS011;36921;49.006;9.292;2023-02-15T08:13:42;24.98;;;7.60;;
50932;SDS011;36921;49.006;9.292;2023-02-15T08:18:49;28.92;;;8.15;;
50932;SDS011;36921;49.006;9.292;2023-02-15T08:21:16;36.00;;;7.85;;
50932;SDS011;36921;49.006;9.292;2023-02-15T08:23:42;15.10;;;7.63;;
50932;SDS011;36921;49.006;9.292;2023-02-15T08:26:07;25.17;;;7.93;;
50932;SDS011;36921;49.006;9.292;2023-02-15T08:28:33;16.05;;;7.35;;
50932;SDS011;36921;49.006;9.292;2023-02-15T08:31:05;63.13;;;7.80;;
50932;SDS011;36921;49.006;9.292;2023-02-15T08:33:35;15.48;;;7.25;;
50932;SDS011;36921;49.006;9.292;2023-02-15T08:36:10;34.30;;;7.65;;
50932;SDS011;36921;49.006;9.292;2023-02-15T08:38:40;39.38;;;8.38;;
50932;SDS011;36921;49.006;9.292;2023-02-15T08:43:35;31.48;;;7.43;;
50932;SDS011;36921;49.006;9.292;2023-02-15T08:46:01;56.28;;;9.02;;
50932;SDS011;36921;49.006;9.292;2023-02-15T08:48:26;33.17;;;8.45;;
50932;SDS011;36921;49.006;9.292;2023-02-15T08:50:51;15.25;;;7.80;;
50932;SDS011;36921;49.006;9.292;2023-02-15T08:53:16;16.60;;;7.57;;
50932;SDS011;36921;49.006;9.292;2023-02-15T08:55:46;16.50;;;7.43;;
50932;SDS011;36921;49.006;9.292;2023-02-15T08:58:12;35.88;;;7.50;;
50932;SDS011;36921;49.006;9.292;2023-02-15T09:00:38;18.30;;;7.90;;
50932;SDS011;36921;49.006;9.292;2023-02-15T09:03:03;28.02;;;7.80;;
50932;SDS011;36921;49.006;9.292;2023-02-15T09:05:28;33.08;;;8.45;;
50932;SDS011;36921;49.006;9.292;2023-02-15T09:07:54;40.72;;;8.93;;
50932;SDS011;36921;49.006;9.292;2023-02-15T09:10:19;39.33;;;8.45;;
50932;SDS011;36921;49.006;9.292;2023-02-15T09:12:45;29.23;;;8.45;;
50932;SDS011;36921;49.006;9.292;2023-02-15T09:15:10;20.25;;;8.77;;
50932;SDS011;36921;49.006;9.292;2023-02-15T09:17:36;23.42;;;9.32;;
50932;SDS011;36921;49.006;9.292;2023-02-15T09:20:01;21.23;;;9.05;;
50932;SDS011;36921;49.006;9.292;2023-02-15T09:22:26;27.05;;;9.98;;
50932;SDS011;36921;49.006;9.292;2023-02-15T09:24:52;35.90;;;10.63;;
50932;SDS011;36921;49.006;9.292;2023-02-15T09:27:17;20.35;;;9.60;;
50932;SDS011;36921;49.006;9.292;2023-02-15T09:29:42;33.65;;;11.13;;
50932;SDS011;36921;49.006;9.292;2023-02-15T09:32:08;38.60;;;10.05;;
50932;SDS011;36921;49.006;9.292;2023-02-15T09:34:33;29.02;;;9.43;;
50932;SDS011;36921;49.006;9.292;2023-02-15T09:36:59;30.63;;;9.80;;
50932;SDS011;36921;49.006;9.292;2023-02-15T09:39:24;37.53;;;10.32;;
50932;SDS011;36921;49.006;9.292;2023-02-15T09:42:04;52.03;;;11.20;;
50932;SDS011;36921;49.006;9.292;2023-02-15T10:14:44;25.95;;;12.15;;
50932;SDS011;36921;49.006;9.292;2023-02-15T10:17:46;20.30;;;10.88;;
50932;SDS011;36921;49.006;9.292;2023-02-15T10:23:06;16.33;;;9.48;;
50932;SDS011;36921;49.006;9.292;2023-02-15T10:28:36;16.05;;;9.43;;
50932;SDS011;36921;49.006;9.292;2023-02-15T10:34:07;19.92;;;10.52;;
50932;SDS011;36921;49.006;9.292;2023-02-15T11:08:40;19.33;;;10.88;;
50932;SDS011;36921;49.006;9.292;2023-02-15T11:11:09;17.38;;;10.40;;
50932;SDS011;36921;49.006;9.292;2023-02-15T11:13:47;17.60;;;11.45;;
50932;SDS011;36921;49.006;9.292;2023-02-15T11:16:21;13.57;;;9.85;;
50932;SDS011;36921;49.006;9.292;2023-02-15T11:18:55;12.45;;;9.32;;
50932;SDS011;36921;49.006;9.292;2023-02-15T11:26:27;13.10;;;9.25;;
50932;SDS011;36921;49.006;9.292;2023-02-15T11:29:02;11.45;;;8.50;;
50932;SDS011;36921;49.006;9.292;2023-02-15T11:31:41;13.35;;;9.70;;
50932;SDS011;36921;49.006;9.292;2023-02-15T11:34:20;14.18;;;9.95;;
50932;SDS011;36921;49.006;9.292;2023-02-15T11:36:54;11.27;;;8.98;;
50932;SDS011;36921;49.006;9.292;2023-02-15T11:39:24;10.90;;;9.27;;
50932;SDS011;36921;49.006;9.292;2023-02-15T11:41:55;13.70;;;10.68;;
50932;SDS011;36921;49.006;9.292;2023-02-15T11:44:34;13.50;;;10.07;;
50932;SDS011;36921;49.006;9.292;2023-02-15T11:47:20;13.55;;;9.98;;
50932;SDS011;36921;49.006;9.292;2023-02-15T11:49:46;11.93;;;9.68;;
50932;SDS011;36921;49.006;9.292;2023-02-15T11:52:12;12.77;;;10.07;;
50932;SDS011;36921;49.006;9.292;2023-02-15T11:54:40;9.73;;;8.45;;
50932;SDS011;36921;49.006;9.292;2023-02-15T11:59:45;12.40;;;10.20;;
50932;SDS011;36921;49.006;9.292;2023-02-15T12:02:17;12.68;;;10.68;;
50932;SDS011;36921;49.006;9.292;2023-02-15T12:04:47;15.23;;;10.98;;
50932;SDS011;36921;49.006;9.292;2023-02-15T12:07:29;14.27;;;11.10;;
50932;SDS011;36921;49.006;9.292;2023-02-15T12:10:00;14.77;;;10.68;;
50932;SDS011;36921;49.006;9.292;2023-02-15T12:12:39;13.25;;;11.18;;
50932;SDS011;36921;49.006;9.292;2023-02-15T12:15:07;14.90;;;11.75;;
50932;SDS011;36921;49.006;9.292;2023-02-15T12:20:04;14.20;;;11.25;;
50932;SDS011;36921;49.006;9.292;2023-02-15T12:22:58;13.10;;;10.45;;
50932;SDS011;36921;49.006;9.292;2023-02-15T12:28:51;14.57;;;11.73;;
50932;SDS011;36921;49.006;9.292;2023-02-15T12:31:04;14.70;;;11.60;;
50932;SDS011;36921;49.006;9.292;2023-02-15T12:33:45;14.70;;;11.98;;
50932;SDS011;36921;49.006;9.292;2023-02-15T12:38:43;14.68;;;11.98;;
50932;SDS011;36921;49.006;9.292;2023-02-15T12:41:24;14.13;;;11.35;;
50932;SDS011;36921;49.006;9.292;2023-02-15T12:46:58;13.88;;;11.32;;
50932;SDS011;36921;49.006;9.292;2023-02-15T12:49:27;14.68;;;11.25;;
50932;SDS011;36921;49.006;9.292;2023-02-15T12:51:55;13.90;;;10.73;;
50932;SDS011;36921;49.006;9.292;2023-02-15T12:54:28;14.73;;;12.05;;
50932;SDS011;36921;49.006;9.292;2023-02-15T12:57:02;16.15;;;10.13;;
50932;SDS011;36921;49.006;9.292;2023-02-15T12:59:50;14.95;;;11.10;;
50932;SDS011;36921;49.006;9.292;2023-02-15T13:03:03;16.92;;;11.60;;
50932;SDS011;36921;49.006;9.292;2023-02-15T13:05:25;13.77;;;10.88;;
50932;SDS011;36921;49.006;9.292;2023-02-15T13:08:00;17.35;;;10.55;;
50932;SDS011;36921;49.006;9.292;2023-02-15T13:10:30;13.00;;;10.95;;
50932;SDS011;36921;49.006;9.292;2023-02-15T13:13:00;16.83;;;11.73;;
50932;SDS011;36921;49.006;9.292;2023-02-15T13:15:37;16.17;;;10.25;;
50932;SDS011;36921;49.006;9.292;2023-02-15T13:18:09;13.50;;;10.27;;
50932;SDS011;36921;49.006;9.292;2023-02-15T13:20:41;13.88;;;11.70;;
50932;SDS011;36921;49.006;9.292;2023-02-15T13:28:41;11.77;;;9.75;;
50932;SDS011;36921;49.006;9.292;2023-02-15T13:31:11;12.70;;;10.15;;
50932;SDS011;36921;49.006;9.292;2023-02-15T13:33:39;14.07;;;10.50;;
50932;SDS011;36921;49.006;9.292;2023-02-15T13:39:19;12.70;;;9.85;;
50932;SDS011;36921;49.006;9.292;2023-02-15T13:41:52;12.77;;;9.82;;
50932;SDS011;36921;49.006;9.292;2023-02-15T13:44:35;18.05;;;10.13;;
50932;SDS011;36921;49.006;9.292;2023-02-15T13:47:37;15.07;;;10.63;;
50932;SDS011;36921;49.006;9.292;2023-02-15T13:50:25;13.88;;;8.63;;
50932;SDS011;36921;49.006;9.292;2023-02-15T14:04:04;14.45;;;11.23;;
50932;SDS011;36921;49.006;9.292;2023-02-15T14:17:43;13.80;;;10.20;;
50932;SDS011;36921;49.006;9.292;2023-02-15T14:25:42;15.15;;;10.10;;
50932;SDS011;36921;49.006;9.292;2023-02-15T14:28:19;13.88;;;9.88;;
50932;SDS011;36921;49.006;9.292;2023-02-15T14:30:53;15.07;;;9.93;;
50932;SDS011;36921;49.006;9.292;2023-02-15T14:36:06;14.93;;;10.70;;
50932;SDS011;36921;49.006;9.292;2023-02-15T14:41:34;14.43;;;10.18;;
50932;SDS011;36921;49.006;9.292;2023-02-15T14:44:09;17.08;;;11.63;;
50932;SDS011;36921;49.006;9.292;2023-02-15T14:46:51;18.88;;;10.95;;
50932;SDS011;36921;49.006;9.292;2023-02-15T14:49:27;13.25;;;10.98;;
50932;SDS011;36921;49.006;9.292;2023-02-15T14:51:58;18.38;;;10.73;;
50932;SDS011;36921;49.006;9.292;2023-02-15T15:01:58;15.18;;;11.00;;
50932;SDS011;36921;49.006;9.292;2023-02-15T15:04:31;19.15;;;12.55;;
50932;SDS011;36921;49.006;9.292;2023-02-15T15:09:35;20.10;;;12.88;;
50932;SDS011;36921;49.006;9.292;2023-02-15T15:14:47;21.45;;;12.98;;
50932;SDS011;36921;49.006;9.292;2023-02-15T15:19:59;18.58;;;12.32;;
50932;SDS011;36921;49.006;9.292;2023-02-15T15:22:26;17.00;;;11.75;;
50932;SDS011;36921;49.006;9.292;2023-02-15T15:24:57;16.90;;;12.27;;
50932;SDS011;36921;49.006;9.292;2023-02-15T15:27:36;22.33;;;13.05;;
50932;SDS011;36921;49.006;9.292;2023-02-15T15:50:14;18.43;;;12.87;;
50932;SDS011;36921;49.006;9.292;2023-02-15T15:52:53;25.65;;;13.82;;
50932;SDS011;36921;49.006;9.292;2023-02-15T15:55:22;21.92;;;13.70;;
50932;SDS011;36921;49.006;9.292;2023-02-15T15:57:51;23.40;;;13.40;;
50932;SDS011;36921;49.006;9.292;2023-02-15T16:00:33;22.55;;;13.65;;
50932;SDS011;36921;49.006;9.292;2023-02-15T16:03:02;25.40;;;14.07;;
50932;SDS011;36921;49.006;9.292;2023-02-15T16:05:34;24.33;;;14.70;;
50932;SDS011;36921;49.006;9.292;2023-02-15T16:08:01;26.50;;;14.23;;
50932;SDS011;36921;49.006;9.292;2023-02-15T16:10:27;25.10;;;14.45;;
50932;SDS011;36921;49.006;9.292;2023-02-15T16:12:57;24.63;;;14.65;;
50932;SDS011;36921;49.006;9.292;2023-02-15T16:15:24;23.15;;;14.18;;
50932;SDS011;36921;49.006;9.292;2023-02-15T16:18:11;23.85;;;14.65;;
50932;SDS011;36921;49.006;9.292;2023-02-15T16:20:40;31.08;;;14.70;;
50932;SDS011;36921;49.006;9.292;2023-02-15T16:26:15;25.42;;;14.30;;
50932;SDS011;36921;49.006;9.292;2023-02-15T16:28:50;26.30;;;15.20;;
50932;SDS011;36921;49.006;9.292;2023-02-15T16:31:19;25.65;;;15.07;;
50932;SDS011;36921;49.006;9.292;2023-02-15T16:33:52;28.60;;;15.82;;
50932;SDS011;36921;49.006;9.292;2023-02-15T16:36:23;27.92;;;16.42;;
50932;SDS011;36921;49.006;9.292;2023-02-15T16:41:27;27.95;;;15.85;;
50932;SDS011;36921;49.006;9.292;2023-02-15T16:43:54;30.27;;;15.68;;
50932;SDS011;36921;49.006;9.292;2023-02-15T16:48:54;32.22;;;15.77;;
50932;SDS011;36921;49.006;9.292;2023-02-15T16:51:25;30.40;;;15.35;;
50932;SDS011;36921;49.006;9.292;2023-02-15T16:53:55;26.35;;;15.25;;
50932;SDS011;36921;49.006;9.292;2023-02-15T16:56:30;34.90;;;18.00;;
50932;SDS011;36921;49.006;9.292;2023-02-15T16:58:57;32.15;;;17.08;;
50932;SDS011;36921;49.006;9.292;2023-02-15T17:01:25;33.70;;;16.77;;
50932;SDS011;36921;49.006;9.292;2023-02-15T17:04:10;36.60;;;17.15;;
50932;SDS011;36921;49.006;9.292;2023-02-15T17:06:36;39.97;;;17.80;;
50932;SDS011;36921;49.006;9.292;2023-02-15T17:09:05;42.42;;;17.83;;
50932;SDS011;36921;49.006;9.292;2023-02-15T17:11:43;50.95;;;18.40;;
50932;SDS011;36921;49.006;9.292;2023-02-15T17:19:03;35.85;;;17.30;;
50932;SDS011;36921;49.006;9.292;2023-02-15T17:21:40;39.15;;;18.00;;
50932;SDS011;36921;49.006;9.292;2023-02-15T17:24:14;37.63;;;19.15;;
50932;SDS011;36921;49.006;9.292;2023-02-15T17:26:42;35.13;;;17.98;;
50932;SDS011;36921;49.006;9.292;2023-02-15T17:29:15;36.97;;;19.20;;
50932;SDS011;36921;49.006;9.292;2023-02-15T17:31:47;35.83;;;19.08;;
50932;SDS011;36921;49.006;9.292;2023-02-15T17:37:14;38.38;;;18.35;;
50932;SDS011;36921;49.006;9.292;2023-02-15T17:39:47;41.63;;;18.75;;
50932;SDS011;36921;49.006;9.292;2023-02-15T17:42:13;41.67;;;20.50;;
50932;SDS011;36921;49.006;9.292;2023-02-15T17:44:38;45.28;;;20.73;;
50932;SDS011;36921;49.006;9.292;2023-02-15T17:47:04;38.67;;;19.10;;
50932;SDS011;36921;49.006;9.292;2023-02-15T17:49:29;46.88;;;20.58;;
50932;SDS011;36921;49.006;9.292;2023-02-15T17:52:00;45.50;;;19.35;;
50932;SDS011;36921;49.006;9.292;2023-02-15T17:54:26;43.58;;;19.70;;
50932;SDS011;36921;49.006;9.292;2023-02-15T17:57:15;37.70;;;18.95;;
50932;SDS011;36921;49.006;9.292;2023-02-15T17:59:41;42.20;;;18.58;;
50932;SDS011;36921;49.006;9.292;2023-02-15T18:02:33;43.90;;;19.33;;
50932;SDS011;36921;49.006;9.292;2023-02-15T18:05:18;44.15;;;20.02;;
50932;SDS011;36921;49.006;9.292;2023-02-15T18:10:54;52.45;;;22.85;;
50932;SDS011;36921;49.006;9.292;2023-02-15T18:13:38;54.92;;;21.60;;
50932;SDS011;36921;49.006;9.292;2023-02-15T18:16:03;53.42;;;22.80;;
50932;SDS011;36921;49.006;9.292;2023-02-15T18:18:29;49.15;;;21.45;;
50932;SDS011;36921;49.006;9.292;2023-02-15T18:20:54;51.80;;;23.92;;
50932;SDS011;36921;49.006;9.292;2023-02-15T18:23:20;48.65;;;22.15;;